sensor_id;sensor_type;location;lat;lon;timestamp;pressure;altitude;pressure_sealevel;temperature;humidity
68656;BME280;55638;51.122;13.606;2024-03-02T00:01:00;99146.38;;;7.30;63.06
68656;BME280;55638;51.122;13.606;2024-03-02T00:02:32;99144.41;;;7.32;63.02
68656;BME280;55638;51.122;13.606;2024-03-02T00:04:04;99139.75;;;7.34;63.17
68656;BME280;55638;51.122;13.606;2024-03-02T00:05:38;99144.84;;;7.37;63.30
68656;BME280;55638;51.122;13.606;2024-03-02T00:07:13;99143.00;;;7.38;63.60
68656;BME280;55638;51.122;13.606;2024-03-02T00:08:45;99142.03;;;7.39;63.29
68656;BME280;55638;51.122;13.606;2024-03-02T00:10:20;99142.63;;;7.43;63.63
68656;BME280;55638;51.122;13.606;2024-03-02T00:11:52;99138.94;;;7.44;63.20
68656;BME280;55638;51.122;13.606;2024-03-02T00:13:24;99133.47;;;7.45;63.07
68656;BME280;55638;51.122;13.606;2024-03-02T00:14:56;99135.00;;;7.48;63.08
68656;BME280;55638;51.122;13.606;2024-03-02T00:16:31;99132.22;;;7.49;63.34
68656;BME280;55638;51.122;13.606;2024-03-02T00:18:03;99131.22;;;7.50;63.26
68656;BME280;55638;51.122;13.606;2024-03-02T00:19:38;99140.69;;;7.54;63.49
68656;BME280;55638;51.122;13.606;2024-03-02T00:21:11;99129.94;;;7.54;63.26
68656;BME280;55638;51.122;13.606;2024-03-02T00:22:45;99139.72;;;7.55;63.27
68656;BME280;55638;51.122;13.606;2024-03-02T00:24:32;99135.06;;;7.57;63.56
68656;BME280;55638;51.122;13.606;2024-03-02T00:26:05;99133.09;;;7.59;63.31
68656;BME280;55638;51.122;13.606;2024-03-02T00:27:37;99133.09;;;7.59;63.12
68656;BME280;55638;51.122;13.606;2024-03-02T00:29:09;99130.28;;;7.61;63.37
68656;BME280;55638;51.122;13.606;2024-03-02T00:30:55;99132.09;;;7.60;63.78
68656;BME280;55638;51.122;13.606;2024-03-02T00:32:28;99137.19;;;7.63;63.38
68656;BME280;55638;51.122;13.606;2024-03-02T00:34:04;99132.56;;;7.66;63.62
68656;BME280;55638;51.122;13.606;2024-03-02T00:35:37;99128.88;;;7.67;63.20
68656;BME280;55638;51.122;13.606;2024-03-02T00:37:10;99130.59;;;7.68;63.25
68656;BME280;55638;51.122;13.606;2024-03-02T00:38:47;99130.59;;;7.68;63.24
68656;BME280;55638;51.122;13.606;2024-03-02T00:40:19;99123.25;;;7.70;63.02
68656;BME280;55638;51.122;13.606;2024-03-02T00:41:51;99124.97;;;7.71;62.91
68656;BME280;55638;51.122;13.606;2024-03-02T00:43:42;99137.50;;;7.70;63.26
68656;BME280;55638;51.122;13.606;2024-03-02T00:45:18;99133.72;;;7.73;63.18
68656;BME280;55638;51.122;13.606;2024-03-02T00:46:50;99138.22;;;7.72;63.38
68656;BME280;55638;51.122;13.606;2024-03-02T00:48:22;99133.72;;;7.73;63.28
68656;BME280;55638;51.122;13.606;2024-03-02T00:49:54;99137.22;;;7.73;63.21
68656;BME280;55638;51.122;13.606;2024-03-02T00:51:29;99145.84;;;7.77;63.22
68656;BME280;55638;51.122;13.606;2024-03-02T00:53:02;99142.31;;;7.76;63.38
68656;BME280;55638;51.122;13.606;2024-03-02T00:54:34;99140.38;;;7.78;63.27
68656;BME280;55638;51.122;13.606;2024-03-02T00:56:09;99142.91;;;7.80;63.40
68656;BME280;55638;51.122;13.606;2024-03-02T00:57:42;99142.78;;;7.81;63.35
68656;BME280;55638;51.122;13.606;2024-03-02T00:59:16;99140.94;;;7.82;63.43
68656;BME280;55638;51.122;13.606;2024-03-02T01:00:48;99138.97;;;7.84;63.34
68656;BME280;55638;51.122;13.606;2024-03-02T01:02:21;99138.84;;;7.85;63.05
68656;BME280;55638;51.122;13.606;2024-03-02T01:03:53;99144.09;;;7.87;63.26
68656;BME280;55638;51.122;13.606;2024-03-02T01:05:25;99139.69;;;7.86;63.29
68656;BME280;55638;51.122;13.606;2024-03-02T01:06:57;99140.41;;;7.88;63.20
68656;BME280;55638;51.122;13.606;2024-03-02T01:08:30;99142.09;;;7.89;63.22
68656;BME280;55638;51.122;13.606;2024-03-02T01:10:02;99141.09;;;7.90;63.25
68656;BME280;55638;51.122;13.606;2024-03-02T01:11:35;99142.81;;;7.91;63.45
68656;BME280;55638;51.122;13.606;2024-03-02T01:13:07;99140.13;;;7.91;63.15
68656;BME280;55638;51.122;13.606;2024-03-02T01:14:38;99152.56;;;7.92;63.39
68656;BME280;55638;51.122;13.606;2024-03-02T01:16:10;99146.19;;;7.93;63.48
68656;BME280;55638;51.122;13.606;2024-03-02T01:17:42;99147.91;;;7.94;63.24
68656;BME280;55638;51.122;13.606;2024-03-02T01:19:14;99155.69;;;7.97;63.31
68656;BME280;55638;51.122;13.606;2024-03-02T01:20:47;99150.31;;;7.97;63.46
68656;BME280;55638;51.122;13.606;2024-03-02T01:22:19;99147.63;;;7.97;63.43
68656;BME280;55638;51.122;13.606;2024-03-02T01:23:56;99137.75;;;7.98;63.35
68656;BME280;55638;51.122;13.606;2024-03-02T01:25:29;99135.91;;;7.98;63.25
68656;BME280;55638;51.122;13.606;2024-03-02T01:27:00;99137.59;;;7.99;63.22
68656;BME280;55638;51.122;13.606;2024-03-02T01:28:32;99142.00;;;8.00;63.24
68656;BME280;55638;51.122;13.606;2024-03-02T01:30:05;99136.63;;;8.00;63.12
68656;BME280;55638;51.122;13.606;2024-03-02T01:31:37;99138.44;;;8.00;63.31
68656;BME280;55638;51.122;13.606;2024-03-02T01:33:09;99136.47;;;8.02;63.15
68656;BME280;55638;51.122;13.606;2024-03-02T01:34:41;99138.31;;;8.01;63.18
68656;BME280;55638;51.122;13.606;2024-03-02T01:36:13;99140.16;;;8.01;62.72
68656;BME280;55638;51.122;13.606;2024-03-02T01:37:45;99125.91;;;8.00;62.76
68656;BME280;55638;51.122;13.606;2024-03-02T01:39:17;99124.19;;;7.99;62.79
68656;BME280;55638;51.122;13.606;2024-03-02T01:40:49;99115.28;;;7.99;62.90
68656;BME280;55638;51.122;13.606;2024-03-02T01:42:21;99112.75;;;7.97;62.88
68656;BME280;55638;51.122;13.606;2024-03-02T01:43:53;99125.31;;;7.97;62.77
68656;BME280;55638;51.122;13.606;2024-03-02T01:45:25;99113.72;;;7.96;62.75
68656;BME280;55638;51.122;13.606;2024-03-02T01:46:58;99131.66;;;7.96;62.89
68656;BME280;55638;51.122;13.606;2024-03-02T01:48:30;99128.13;;;7.95;62.88
68656;BME280;55638;51.122;13.606;2024-03-02T01:50:02;99121.19;;;7.93;62.93
68656;BME280;55638;51.122;13.606;2024-03-02T01:51:34;99121.34;;;7.91;63.07
68656;BME280;55638;51.122;13.606;2024-03-02T01:53:08;99121.34;;;7.91;63.25
68656;BME280;55638;51.122;13.606;2024-03-02T01:54:40;99121.34;;;7.91;63.12
68656;BME280;55638;51.122;13.606;2024-03-02T01:56:12;99123.19;;;7.91;62.92
68656;BME280;55638;51.122;13.606;2024-03-02T01:57:44;99126.00;;;7.89;62.90
68656;BME280;55638;51.122;13.606;2024-03-02T01:59:16;99120.91;;;7.86;62.99
68656;BME280;55638;51.122;13.606;2024-03-02T02:00:49;99127.25;;;7.85;63.04
68656;BME280;55638;51.122;13.606;2024-03-02T02:02:22;99123.72;;;7.84;63.08
68656;BME280;55638;51.122;13.606;2024-03-02T02:03:54;99129.09;;;7.84;63.04
68656;BME280;55638;51.122;13.606;2024-03-02T02:05:26;99125.56;;;7.84;63.02
68656;BME280;55638;51.122;13.606;2024-03-02T02:06:58;99125.69;;;7.82;63.01
68656;BME280;55638;51.122;13.606;2024-03-02T02:08:31;99118.50;;;7.83;63.03
68656;BME280;55638;51.122;13.606;2024-03-02T02:10:03;99113.28;;;7.81;63.10
68656;BME280;55638;51.122;13.606;2024-03-02T02:11:35;99119.63;;;7.80;63.05
68656;BME280;55638;51.122;13.606;2024-03-02T02:13:07;99121.31;;;7.81;63.18
68656;BME280;55638;51.122;13.606;2024-03-02T02:14:47;99120.59;;;7.79;63.67
68656;BME280;55638;51.122;13.606;2024-03-02T02:16:18;99125.13;;;7.79;63.22
68656;BME280;55638;51.122;13.606;2024-03-02T02:17:51;99117.06;;;7.79;63.28
68656;BME280;55638;51.122;13.606;2024-03-02T02:19:23;99118.06;;;7.78;63.38
68656;BME280;55638;51.122;13.606;2024-03-02T02:20:55;99110.84;;;7.78;63.39
68656;BME280;55638;51.122;13.606;2024-03-02T02:22:26;99107.34;;;7.78;63.54
68656;BME280;55638;51.122;13.606;2024-03-02T02:23:59;99104.66;;;7.78;63.37
68656;BME280;55638;51.122;13.606;2024-03-02T02:25:31;99102.81;;;7.78;63.48
68656;BME280;55638;51.122;13.606;2024-03-02T02:27:02;99112.69;;;7.78;63.47
68656;BME280;55638;51.122;13.606;2024-03-02T02:28:34;99109.03;;;7.79;63.37
68656;BME280;55638;51.122;13.606;2024-03-02T02:30:07;99107.34;;;7.78;63.17
68656;BME280;55638;51.122;13.606;2024-03-02T02:31:40;99113.53;;;7.78;63.29
68656;BME280;55638;51.122;13.606;2024-03-02T02:33:12;99110.97;;;7.77;63.30
68656;BME280;55638;51.122;13.606;2024-03-02T02:34:44;99117.06;;;7.79;63.11
68656;BME280;55638;51.122;13.606;2024-03-02T02:36:16;99113.66;;;7.77;63.22
68656;BME280;55638;51.122;13.606;2024-03-02T02:37:48;99110.97;;;7.77;63.31
68656;BME280;55638;51.122;13.606;2024-03-02T02:39:21;99107.44;;;7.76;63.37
68656;BME280;55638;51.122;13.606;2024-03-02T02:40:54;99102.25;;;7.75;63.39
68656;BME280;55638;51.122;13.606;2024-03-02T02:42:26;99117.34;;;7.76;63.28
68656;BME280;55638;51.122;13.606;2024-03-02T02:43:58;99111.97;;;7.76;63.33
68656;BME280;55638;51.122;13.606;2024-03-02T02:45:29;99111.97;;;7.76;63.33
68656;BME280;55638;51.122;13.606;2024-03-02T02:47:02;99116.34;;;7.77;63.29
68656;BME280;55638;51.122;13.606;2024-03-02T02:48:34;99115.66;;;7.75;63.51
68656;BME280;55638;51.122;13.606;2024-03-02T02:50:10;99117.34;;;7.76;63.64
68656;BME280;55638;51.122;13.606;2024-03-02T02:51:42;99120.03;;;7.76;63.41
68656;BME280;55638;51.122;13.606;2024-03-02T02:53:15;99117.50;;;7.74;63.40
68656;BME280;55638;51.122;13.606;2024-03-02T02:54:46;99121.03;;;7.75;63.43
68656;BME280;55638;51.122;13.606;2024-03-02T02:56:19;99119.31;;;7.74;63.57
68656;BME280;55638;51.122;13.606;2024-03-02T02:57:50;99121.03;;;7.75;63.42
68656;BME280;55638;51.122;13.606;2024-03-02T02:59:22;99112.13;;;7.74;63.45
68656;BME280;55638;51.122;13.606;2024-03-02T03:00:54;99114.94;;;7.73;63.61
68656;BME280;55638;51.122;13.606;2024-03-02T03:02:28;99114.81;;;7.74;63.43
68656;BME280;55638;51.122;13.606;2024-03-02T03:04:00;99112.97;;;7.75;63.73
68656;BME280;55638;51.122;13.606;2024-03-02T03:05:32;99113.94;;;7.74;63.60
68656;BME280;55638;51.122;13.606;2024-03-02T03:07:04;99107.59;;;7.75;63.72
68656;BME280;55638;51.122;13.606;2024-03-02T03:08:36;99108.31;;;7.77;63.71
68656;BME280;55638;51.122;13.606;2024-03-02T03:10:08;99107.59;;;7.75;63.83
68656;BME280;55638;51.122;13.606;2024-03-02T03:11:40;99106.63;;;7.76;63.76
68656;BME280;55638;51.122;13.606;2024-03-02T03:13:12;99106.63;;;7.76;63.71
68656;BME280;55638;51.122;13.606;2024-03-02T03:14:44;99091.34;;;7.76;63.72
68656;BME280;55638;51.122;13.606;2024-03-02T03:16:16;99097.56;;;7.77;63.81
68656;BME280;55638;51.122;13.606;2024-03-02T09:22:54;99341.31;;;7.81;74.16
68656;BME280;55638;51.122;13.606;2024-03-02T09:24:26;99337.38;;;8.06;73.50
68656;BME280;55638;51.122;13.606;2024-03-02T09:25:57;99335.25;;;8.31;72.77
68656;BME280;55638;51.122;13.606;2024-03-02T09:27:29;99335.78;;;8.55;72.11
68656;BME280;55638;51.122;13.606;2024-03-02T10:17:40;99342.28;;;10.37;65.31
68656;BME280;55638;51.122;13.606;2024-03-02T10:19:20;99338.69;;;10.47;65.26
68656;BME280;55638;51.122;13.606;2024-03-02T10:20:52;99332.56;;;10.54;64.99
68656;BME280;55638;51.122;13.606;2024-03-02T10:22:24;99334.50;;;10.62;64.88
68656;BME280;55638;51.122;13.606;2024-03-02T10:24:06;99334.66;;;10.70;63.89
68656;BME280;55638;51.122;13.606;2024-03-02T10:25:38;99330.38;;;10.77;64.57
68656;BME280;55638;51.122;13.606;2024-03-02T10:27:27;99331.16;;;10.87;63.46
68656;BME280;55638;51.122;13.606;2024-03-02T10:28:59;99322.28;;;10.95;64.11
68656;BME280;55638;51.122;13.606;2024-03-02T10:30:32;99324.94;;;11.05;63.71
68656;BME280;55638;51.122;13.606;2024-03-02T10:32:05;99321.63;;;11.11;62.83
68656;BME280;55638;51.122;13.606;2024-03-02T10:33:38;99328.66;;;11.22;63.23
68656;BME280;55638;51.122;13.606;2024-03-02T10:35:10;99317.09;;;11.29;62.95
68656;BME280;55638;51.122;13.606;2024-03-02T10:36:43;99324.09;;;11.40;62.63
68656;BME280;55638;51.122;13.606;2024-03-02T10:38:15;99314.38;;;11.47;62.46
68656;BME280;55638;51.122;13.606;2024-03-02T10:39:47;99324.72;;;11.52;61.90
68656;BME280;55638;51.122;13.606;2024-03-02T10:41:23;99323.09;;;11.59;60.26
68656;BME280;55638;51.122;13.606;2024-03-02T10:42:55;99313.84;;;11.62;61.03
68656;BME280;55638;51.122;13.606;2024-03-02T10:44:28;99312.03;;;11.70;61.47
68656;BME280;55638;51.122;13.606;2024-03-02T10:46:02;99309.88;;;11.74;61.11
68656;BME280;55638;51.122;13.606;2024-03-02T10:47:36;99307.97;;;11.84;60.52
68656;BME280;55638;51.122;13.606;2024-03-02T10:49:09;99302.59;;;11.92;61.37
68656;BME280;55638;51.122;13.606;2024-03-02T10:50:41;99297.28;;;12.00;60.92
68656;BME280;55638;51.122;13.606;2024-03-02T10:52:13;99299.84;;;12.10;61.12
68656;BME280;55638;51.122;13.606;2024-03-02T10:53:45;99304.31;;;12.19;60.88
68656;BME280;55638;51.122;13.606;2024-03-02T10:55:17;99306.19;;;12.27;60.11
68656;BME280;55638;51.122;13.606;2024-03-02T10:56:50;99307.09;;;12.36;59.91
68656;BME280;55638;51.122;13.606;2024-03-02T10:58:23;99307.31;;;12.42;59.22
68656;BME280;55638;51.122;13.606;2024-03-02T11:00:03;99307.19;;;12.52;57.43
68656;BME280;55638;51.122;13.606;2024-03-02T11:01:37;99302.81;;;12.59;58.58
68656;BME280;55638;51.122;13.606;2024-03-02T11:03:11;99300.28;;;12.66;58.48
68656;BME280;55638;51.122;13.606;2024-03-02T11:04:44;99299.66;;;12.72;58.50
68656;BME280;55638;51.122;13.606;2024-03-02T11:06:19;99305.28;;;12.79;58.87
68656;BME280;55638;51.122;13.606;2024-03-02T11:08:00;99303.09;;;12.82;55.89
68656;BME280;55638;51.122;13.606;2024-03-02T11:09:37;99298.56;;;12.91;58.14
68656;BME280;55638;51.122;13.606;2024-03-02T11:11:15;99297.88;;;12.97;55.93
68656;BME280;55638;51.122;13.606;2024-03-02T11:12:56;99297.91;;;13.05;56.59
68656;BME280;55638;51.122;13.606;2024-03-02T11:14:31;99301.94;;;13.09;57.36
68656;BME280;55638;51.122;13.606;2024-03-02T11:16:12;99301.16;;;13.17;56.08
68656;BME280;55638;51.122;13.606;2024-03-02T11:17:52;99288.31;;;13.27;57.71
68656;BME280;55638;51.122;13.606;2024-03-02T11:19:25;99295.56;;;13.35;58.08
68656;BME280;55638;51.122;13.606;2024-03-02T11:20:57;99294.38;;;13.45;57.88
68656;BME280;55638;51.122;13.606;2024-03-02T11:22:30;99289.47;;;13.57;58.38
68656;BME280;55638;51.122;13.606;2024-03-02T11:24:37;99287.97;;;13.63;52.63
68656;BME280;55638;51.122;13.606;2024-03-02T11:26:17;99282.72;;;13.78;55.38
68656;BME280;55638;51.122;13.606;2024-03-02T11:31:09;99290.09;;;14.17;56.52
68656;BME280;55638;51.122;13.606;2024-03-02T11:32:41;99290.41;;;14.30;56.77
68656;BME280;55638;51.122;13.606;2024-03-02T11:34:23;99289.69;;;14.44;56.48
68656;BME280;55638;51.122;13.606;2024-03-02T11:36:00;99289.78;;;14.59;56.72
68656;BME280;55638;51.122;13.606;2024-03-02T11:37:32;99293.66;;;14.73;56.62
68656;BME280;55638;51.122;13.606;2024-03-02T11:39:04;99293.44;;;14.82;55.41
68656;BME280;55638;51.122;13.606;2024-03-02T11:40:39;99297.28;;;14.96;55.19
68656;BME280;55638;51.122;13.606;2024-03-02T11:42:12;99283.94;;;15.10;55.27
68656;BME280;55638;51.122;13.606;2024-03-02T11:43:47;99281.00;;;15.19;54.75
68656;BME280;55638;51.122;13.606;2024-03-02T11:45:24;99279.56;;;15.31;53.38
68656;BME280;55638;51.122;13.606;2024-03-02T11:47:00;99282.69;;;15.43;52.33
68656;BME280;55638;51.122;13.606;2024-03-02T11:48:35;99281.25;;;15.56;53.62
68656;BME280;55638;51.122;13.606;2024-03-02T11:50:07;99279.31;;;15.64;53.30
68656;BME280;55638;51.122;13.606;2024-03-02T11:51:51;99277.19;;;15.74;51.36
68656;BME280;55638;51.122;13.606;2024-03-02T11:53:26;99275.91;;;15.85;52.92
68656;BME280;55638;51.122;13.606;2024-03-02T11:55:02;99271.41;;;15.92;53.17
68656;BME280;55638;51.122;13.606;2024-03-02T11:56:35;99275.47;;;15.96;52.30
68656;BME280;55638;51.122;13.606;2024-03-02T11:58:07;99273.22;;;16.00;51.74
68656;BME280;55638;51.122;13.606;2024-03-02T11:59:40;99279.94;;;16.04;51.45
68656;BME280;55638;51.122;13.606;2024-03-02T12:01:13;99271.97;;;16.02;51.12
68656;BME280;55638;51.122;13.606;2024-03-02T12:03:00;99281.16;;;16.01;50.87
68656;BME280;55638;51.122;13.606;2024-03-02T12:04:34;99273.69;;;16.04;51.38
68656;BME280;55638;51.122;13.606;2024-03-02T12:06:06;99267.78;;;16.00;50.56
68656;BME280;55638;51.122;13.606;2024-03-02T12:07:38;99272.28;;;15.93;50.04
68656;BME280;55638;51.122;13.606;2024-03-02T12:09:10;99269.25;;;15.88;49.97
68656;BME280;55638;51.122;13.606;2024-03-02T12:10:59;99272.53;;;15.83;48.17
68656;BME280;55638;51.122;13.606;2024-03-02T12:12:33;99266.22;;;15.83;50.39
68656;BME280;55638;51.122;13.606;2024-03-02T12:14:11;99268.09;;;15.82;49.28
68656;BME280;55638;51.122;13.606;2024-03-02T12:15:44;99268.31;;;15.81;50.66
68656;BME280;55638;51.122;13.606;2024-03-02T12:17:16;99259.59;;;15.85;50.93
68656;BME280;55638;51.122;13.606;2024-03-02T12:18:48;99267.56;;;15.87;50.43
68656;BME280;55638;51.122;13.606;2024-03-02T12:20:21;99257.91;;;15.84;49.90
68656;BME280;55638;51.122;13.606;2024-03-02T12:21:53;99259.22;;;15.88;50.43
68656;BME280;55638;51.122;13.606;2024-03-02T12:23:26;99256.50;;;15.88;49.93
68656;BME280;55638;51.122;13.606;2024-03-02T12:24:58;99256.50;;;15.88;50.59
68656;BME280;55638;51.122;13.606;2024-03-02T12:26:30;99259.88;;;15.90;50.37
68656;BME280;55638;51.122;13.606;2024-03-02T12:28:02;99264.97;;;15.93;50.42
68656;BME280;55638;51.122;13.606;2024-03-02T12:29:35;99260.53;;;15.92;50.10
68656;BME280;55638;51.122;13.606;2024-03-02T12:31:07;99262.03;;;15.95;49.92
68656;BME280;55638;51.122;13.606;2024-03-02T12:32:42;99263.19;;;16.00;49.14
68656;BME280;55638;51.122;13.606;2024-03-02T12:34:15;99264.00;;;16.01;49.14
68656;BME280;55638;51.122;13.606;2024-03-02T12:35:49;99258.94;;;15.98;48.22
68656;BME280;55638;51.122;13.606;2024-03-02T12:37:21;99257.91;;;15.99;49.11
68656;BME280;55638;51.122;13.606;2024-03-02T12:38:53;99262.34;;;16.00;49.16
68656;BME280;55638;51.122;13.606;2024-03-02T12:40:25;99255.41;;;15.97;48.77
68656;BME280;55638;51.122;13.606;2024-03-02T12:41:58;99247.81;;;15.93;48.58
68656;BME280;55638;51.122;13.606;2024-03-02T12:43:30;99251.38;;;15.93;48.65
68656;BME280;55638;51.122;13.606;2024-03-02T12:45:03;99251.84;;;15.97;48.51
68656;BME280;55638;51.122;13.606;2024-03-02T12:46:35;99247.59;;;15.94;47.79
68656;BME280;55638;51.122;13.606;2024-03-02T12:48:07;99244.78;;;15.88;47.76
68656;BME280;55638;51.122;13.606;2024-03-02T12:49:40;99242.81;;;15.82;47.47
68656;BME280;55638;51.122;13.606;2024-03-02T12:51:12;99241.31;;;15.79;47.26
68656;BME280;55638;51.122;13.606;2024-03-02T12:52:51;99244.28;;;15.69;45.76
68656;BME280;55638;51.122;13.606;2024-03-02T12:54:23;99244.00;;;15.64;47.27
68656;BME280;55638;51.122;13.606;2024-03-02T12:55:56;99236.75;;;15.57;47.66
68656;BME280;55638;51.122;13.606;2024-03-02T12:57:29;99239.34;;;15.50;47.25
68656;BME280;55638;51.122;13.606;2024-03-02T12:59:01;99237.56;;;15.42;47.24
68656;BME280;55638;51.122;13.606;2024-03-02T13:00:33;99232.00;;;15.36;47.70
68656;BME280;55638;51.122;13.606;2024-03-02T13:02:07;99236.28;;;15.30;48.03
68656;BME280;55638;51.122;13.606;2024-03-02T13:03:38;99231.41;;;15.25;47.96
68656;BME280;55638;51.122;13.606;2024-03-02T13:05:10;99234.66;;;15.21;47.99
68656;BME280;55638;51.122;13.606;2024-03-02T13:06:43;99234.03;;;15.19;48.49
68656;BME280;55638;51.122;13.606;2024-03-02T13:08:15;99234.53;;;15.14;48.43
68656;BME280;55638;51.122;13.606;2024-03-02T13:09:46;99236.97;;;15.09;47.85
68656;BME280;55638;51.122;13.606;2024-03-02T13:11:19;99233.47;;;15.00;46.22
68656;BME280;55638;51.122;13.606;2024-03-02T13:12:51;99234.84;;;14.96;47.13
68656;BME280;55638;51.122;13.606;2024-03-02T13:14:23;99239.47;;;14.88;46.58
68656;BME280;55638;51.122;13.606;2024-03-02T13:15:56;99240.38;;;14.80;46.68
68656;BME280;55638;51.122;13.606;2024-03-02T13:17:28;99244.31;;;14.77;46.68
68656;BME280;55638;51.122;13.606;2024-03-02T13:19:08;99237.56;;;14.65;45.75
68656;BME280;55638;51.122;13.606;2024-03-02T13:20:39;99247.41;;;14.58;46.16
68656;BME280;55638;51.122;13.606;2024-03-02T13:22:11;99242.91;;;14.50;46.20
68656;BME280;55638;51.122;13.606;2024-03-02T13:23:43;99239.72;;;14.38;46.15
68656;BME280;55638;51.122;13.606;2024-03-02T13:25:15;99241.13;;;14.26;45.92
68656;BME280;55638;51.122;13.606;2024-03-02T13:26:47;99245.41;;;14.12;46.01
68656;BME280;55638;51.122;13.606;2024-03-02T13:28:19;99239.84;;;14.06;46.56
68656;BME280;55638;51.122;13.606;2024-03-02T13:29:51;99245.09;;;13.99;46.79
68656;BME280;55638;51.122;13.606;2024-03-02T13:31:23;99237.84;;;13.91;47.17
68656;BME280;55638;51.122;13.606;2024-03-02T13:32:55;99239.03;;;13.81;46.85
68656;BME280;55638;51.122;13.606;2024-03-02T13:34:27;99240.75;;;13.74;46.92
68656;BME280;55638;51.122;13.606;2024-03-02T13:35:59;99241.59;;;13.66;46.83
68656;BME280;55638;51.122;13.606;2024-03-02T13:37:31;99226.00;;;13.68;47.02
68656;BME280;55638;51.122;13.606;2024-03-02T13:39:03;99235.16;;;13.59;47.30
68656;BME280;55638;51.122;13.606;2024-03-02T13:40:36;99236.69;;;13.53;47.41
68656;BME280;55638;51.122;13.606;2024-03-02T13:42:10;99236.88;;;13.43;47.53
68656;BME280;55638;51.122;13.606;2024-03-02T13:43:42;99235.34;;;13.33;47.34
68656;BME280;55638;51.122;13.606;2024-03-02T13:45:17;99239.75;;;13.34;47.43
68656;BME280;55638;51.122;13.606;2024-03-02T13:46:49;99246.69;;;13.28;47.52
68656;BME280;55638;51.122;13.606;2024-03-02T13:48:23;99240.91;;;13.23;47.60
68656;BME280;55638;51.122;13.606;2024-03-02T13:49:57;99239.75;;;13.17;47.46
68656;BME280;55638;51.122;13.606;2024-03-02T13:51:29;99241.06;;;13.13;47.66
68656;BME280;55638;51.122;13.606;2024-03-02T13:53:01;99245.84;;;13.11;47.58
68656;BME280;55638;51.122;13.606;2024-03-02T13:54:36;99249.03;;;13.07;47.87
68656;BME280;55638;51.122;13.606;2024-03-02T13:56:08;99250.56;;;13.01;48.24
68656;BME280;55638;51.122;13.606;2024-03-02T13:57:40;99243.44;;;13.00;48.31
68656;BME280;55638;51.122;13.606;2024-03-02T13:59:13;99244.78;;;12.96;48.25
68656;BME280;55638;51.122;13.606;2024-03-02T14:00:45;99254.41;;;12.90;48.16
68656;BME280;55638;51.122;13.606;2024-03-02T14:02:17;99246.13;;;12.92;48.33
68656;BME280;55638;51.122;13.606;2024-03-02T14:03:49;99255.59;;;12.88;48.44
68656;BME280;55638;51.122;13.606;2024-03-02T14:05:21;99253.06;;;12.86;48.34
68656;BME280;55638;51.122;13.606;2024-03-02T14:06:53;99253.38;;;12.83;48.54
68656;BME280;55638;51.122;13.606;2024-03-02T14:08:25;99246.28;;;12.82;48.49
68656;BME280;55638;51.122;13.606;2024-03-02T14:09:57;99249.31;;;12.79;48.35
68656;BME280;55638;51.122;13.606;2024-03-02T14:11:29;99252.88;;;12.80;48.67
68656;BME280;55638;51.122;13.606;2024-03-02T14:13:01;99253.72;;;12.80;48.82
68656;BME280;55638;51.122;13.606;2024-03-02T14:14:33;99252.19;;;12.78;48.63
68656;BME280;55638;51.122;13.606;2024-03-02T14:16:06;99241.69;;;12.74;48.47
68656;BME280;55638;51.122;13.606;2024-03-02T14:17:38;99249.44;;;12.69;48.13
68656;BME280;55638;51.122;13.606;2024-03-02T14:19:11;99246.38;;;12.64;48.21
68656;BME280;55638;51.122;13.606;2024-03-02T14:20:43;99251.63;;;12.66;48.46
68656;BME280;55638;51.122;13.606;2024-03-02T14:22:17;99255.16;;;12.66;48.55
68656;BME280;55638;51.122;13.606;2024-03-02T14:23:49;99254.16;;;12.59;48.56
68656;BME280;55638;51.122;13.606;2024-03-02T14:25:21;99254.81;;;12.61;48.74
68656;BME280;55638;51.122;13.606;2024-03-02T14:26:53;99248.75;;;12.59;48.83
68656;BME280;55638;51.122;13.606;2024-03-02T14:28:40;99250.75;;;12.57;48.60
68656;BME280;55638;51.122;13.606;2024-03-02T14:30:21;99256.00;;;12.59;48.73
68656;BME280;55638;51.122;13.606;2024-03-02T14:31:53;99263.75;;;12.53;48.49
68656;BME280;55638;51.122;13.606;2024-03-02T14:33:25;99252.75;;;12.47;48.29
68656;BME280;55638;51.122;13.606;2024-03-02T14:34:57;99244.97;;;12.44;48.35
68656;BME280;55638;51.122;13.606;2024-03-02T14:36:29;99254.03;;;12.35;48.50
68656;BME280;55638;51.122;13.606;2024-03-02T14:38:02;99256.06;;;12.33;48.64
68656;BME280;55638;51.122;13.606;2024-03-02T14:39:34;99251.50;;;12.33;48.65
68656;BME280;55638;51.122;13.606;2024-03-02T14:41:07;99251.97;;;12.28;48.62
68656;BME280;55638;51.122;13.606;2024-03-02T14:42:39;99252.16;;;12.27;48.83
68656;BME280;55638;51.122;13.606;2024-03-02T14:44:11;99248.94;;;12.23;48.86
68656;BME280;55638;51.122;13.606;2024-03-02T14:45:43;99261.59;;;12.23;48.79
68656;BME280;55638;51.122;13.606;2024-03-02T14:47:15;99250.59;;;12.16;48.87
68656;BME280;55638;51.122;13.606;2024-03-02T14:48:47;99252.09;;;12.19;49.10
68656;BME280;55638;51.122;13.606;2024-03-02T14:50:20;99254.97;;;12.17;48.94
68656;BME280;55638;51.122;13.606;2024-03-02T14:51:52;99248.03;;;12.15;48.60
68656;BME280;55638;51.122;13.606;2024-03-02T14:53:24;99248.88;;;12.15;48.95
68656;BME280;55638;51.122;13.606;2024-03-02T14:54:56;99245.50;;;12.13;48.83
68656;BME280;55638;51.122;13.606;2024-03-02T14:56:27;99246.81;;;12.09;49.16
68656;BME280;55638;51.122;13.606;2024-03-02T14:58:00;99245.31;;;12.07;49.02
68656;BME280;55638;51.122;13.606;2024-03-02T14:59:33;99251.72;;;12.05;49.06
68656;BME280;55638;51.122;13.606;2024-03-02T15:01:05;99235.81;;;12.02;49.22
68656;BME280;55638;51.122;13.606;2024-03-02T15:02:41;99239.53;;;12.01;49.30
68656;BME280;55638;51.122;13.606;2024-03-02T15:04:13;99238.69;;;12.01;49.13
68656;BME280;55638;51.122;13.606;2024-03-02T15:05:47;99235.16;;;12.00;49.30
68656;BME280;55638;51.122;13.606;2024-03-02T15:07:20;99234.31;;;12.00;49.42
68656;BME280;55638;51.122;13.606;2024-03-02T15:08:52;99237.16;;;11.98;49.15